createdAt,value
2019-03-19T00:01:00.793Z,7.60
2019-03-19T00:03:31.796Z,3.20
2019-03-19T00:06:02.616Z,5.60
2019-03-19T00:08:33.570Z,4.00
2019-03-19T00:11:04.680Z,6.00
2019-03-19T00:13:35.579Z,4.40
2019-03-19T00:16:06.375Z,4.00
2019-03-19T00:18:37.147Z,6.00
2019-03-19T00:21:07.999Z,4.00
2019-03-19T00:23:38.830Z,4.00
2019-03-19T00:26:09.700Z,3.00
2019-03-19T00:28:40.624Z,3.60
2019-03-19T00:31:11.672Z,3.60
2019-03-19T00:33:42.539Z,4.00
2019-03-19T00:36:13.469Z,3.50
2019-03-19T00:38:44.374Z,3.40
2019-03-19T00:41:15.448Z,4.00
2019-03-19T00:43:46.436Z,2.00
2019-03-19T00:46:17.354Z,3.00
2019-03-19T00:48:48.228Z,4.00
2019-03-19T00:51:19.116Z,7.00
2019-03-19T00:53:51.088Z,4.00
2019-03-19T00:56:22.108Z,4.00
2019-03-19T00:58:52.992Z,4.00
2019-03-19T01:01:25.622Z,3.00
2019-03-19T01:03:56.688Z,2.00
2019-03-19T01:06:27.498Z,3.00
2019-03-19T01:08:58.273Z,2.00
2019-03-19T01:11:29.168Z,4.00
2019-03-19T01:14:00.107Z,3.00
2019-03-19T01:16:31.318Z,3.40
2019-03-19T01:19:02.289Z,3.00
2019-03-19T01:21:33.237Z,4.00
2019-03-19T01:24:04.192Z,2.00
2019-03-19T01:26:35.205Z,3.00
2019-03-19T01:29:06.092Z,2.00
2019-03-19T01:31:36.966Z,3.00
2019-03-19T01:34:08.901Z,4.00
2019-03-19T01:36:39.981Z,3.00
2019-03-19T01:39:10.944Z,3.75
2019-03-19T01:41:43.671Z,2.00
2019-03-19T01:44:14.574Z,3.00
2019-03-19T01:46:45.491Z,3.40
2019-03-19T01:49:16.320Z,6.00
2019-03-19T01:51:47.116Z,2.00
2019-03-19T01:54:18.017Z,4.60
2019-03-19T01:56:50.521Z,3.40
2019-03-19T01:59:21.431Z,2.00
2019-03-19T02:01:52.755Z,6.50
2019-03-19T02:04:23.589Z,3.40
2019-03-19T02:06:54.504Z,5.20
2019-03-19T02:09:25.396Z,3.40
2019-03-19T02:11:56.397Z,3.00
2019-03-19T02:14:27.149Z,2.60
2019-03-19T02:16:58.076Z,4.00
2019-03-19T02:19:28.999Z,4.00
2019-03-19T02:21:59.935Z,2.60
2019-03-19T02:24:30.820Z,2.00
2019-03-19T02:27:01.705Z,2.40
2019-03-19T02:29:32.913Z,6.00
2019-03-19T02:32:03.782Z,4.00
2019-03-19T02:34:34.646Z,6.40
2019-03-19T02:37:05.628Z,6.20
2019-03-19T02:39:36.545Z,3.80
2019-03-19T02:42:07.444Z,3.20
2019-03-19T02:44:38.216Z,2.00
2019-03-19T02:47:09.190Z,4.00
2019-03-19T02:49:40.153Z,1.00
2019-03-19T02:52:10.954Z,2.00
2019-03-19T02:54:41.868Z,2.25
2019-03-19T02:57:12.960Z,1.50
2019-03-19T02:59:43.742Z,3.50
2019-03-19T03:02:14.746Z,3.00
2019-03-19T03:04:45.681Z,4.00
2019-03-19T03:07:16.726Z,3.00
2019-03-19T03:09:47.582Z,3.40
2019-03-19T03:12:18.470Z,2.50
2019-03-19T03:14:49.366Z,3.00
2019-03-19T03:17:20.367Z,2.00
2019-03-19T03:19:51.360Z,3.00
2019-03-19T03:22:22.427Z,1.50
2019-03-19T03:24:53.284Z,3.00
2019-03-19T03:27:24.237Z,3.00
2019-03-19T03:29:55.189Z,3.00
2019-03-19T03:32:26.070Z,2.00
2019-03-19T03:34:57.065Z,3.00
2019-03-19T03:37:27.978Z,4.80
2019-03-19T03:39:58.755Z,2.00
2019-03-19T03:42:29.941Z,2.40
2019-03-19T03:45:00.918Z,4.00
2019-03-19T03:47:32.021Z,3.00
2019-03-19T03:50:02.817Z,2.00
2019-03-19T03:52:33.724Z,3.00
2019-03-19T03:55:04.601Z,2.25
2019-03-19T03:57:37.212Z,2.00
2019-03-19T04:00:10.414Z,3.00
2019-03-19T04:02:44.610Z,2.00
2019-03-19T04:05:15.885Z,3.40
2019-03-19T04:07:46.672Z,3.60
2019-03-19T04:10:17.499Z,4.00
2019-03-19T04:12:48.240Z,3.00
2019-03-19T04:15:20.165Z,3.00
2019-03-19T04:17:51.329Z,3.00
2019-03-19T04:20:22.149Z,2.00
2019-03-19T04:22:53.167Z,2.20
2019-03-19T04:25:24.064Z,3.00
2019-03-19T04:27:56.050Z,1.00
2019-03-19T04:30:27.913Z,4.80
2019-03-19T04:32:58.868Z,3.00
2019-03-19T04:35:31.248Z,4.00
2019-03-19T04:38:02.229Z,4.40
2019-03-19T04:40:33.120Z,4.80
2019-03-19T04:43:04.299Z,4.00
2019-03-19T04:45:35.141Z,6.00
2019-03-19T04:48:06.116Z,3.40
2019-03-19T04:50:37.181Z,3.60
2019-03-19T04:53:08.180Z,3.00
2019-03-19T04:55:38.964Z,2.00
2019-03-19T04:58:10.923Z,4.00
2019-03-19T05:00:41.835Z,3.60
2019-03-19T05:03:12.766Z,2.00
2019-03-19T05:05:43.649Z,3.00
2019-03-19T05:08:15.645Z,4.00
2019-03-19T05:10:46.538Z,3.40
2019-03-19T05:13:17.532Z,6.00
2019-03-19T05:15:48.435Z,3.40
2019-03-19T05:18:19.427Z,3.00
2019-03-19T05:20:50.268Z,2.00
2019-03-19T05:23:20.876Z,4.20
2019-03-19T05:25:51.661Z,3.00
2019-03-19T05:28:22.552Z,2.00
2019-03-19T05:30:53.430Z,3.00
2019-03-19T05:33:25.750Z,4.00
2019-03-19T05:35:56.771Z,2.40
2019-03-19T05:38:27.761Z,2.40
2019-03-19T05:40:58.589Z,5.00
2019-03-19T05:43:29.312Z,5.60
2019-03-19T05:46:00.347Z,2.25
2019-03-19T05:48:33.311Z,2.00
2019-03-19T05:51:04.093Z,2.00
2019-03-19T05:53:35.209Z,5.00
2019-03-19T05:56:05.992Z,2.00
2019-03-19T05:58:36.989Z,3.00
2019-03-19T06:01:07.876Z,7.00
2019-03-19T06:03:38.764Z,3.00
2019-03-19T06:06:09.695Z,4.60
2019-03-19T06:08:40.625Z,2.20
2019-03-19T06:11:11.493Z,5.20
2019-03-19T06:13:42.293Z,5.00
2019-03-19T06:16:13.268Z,7.50
2019-03-19T06:18:44.298Z,5.00
2019-03-19T06:21:15.068Z,6.00
2019-03-19T06:23:46.162Z,5.00
2019-03-19T06:26:17.300Z,5.00
2019-03-19T06:28:48.228Z,3.00
2019-03-19T06:31:19.300Z,4.00
2019-03-19T06:33:50.242Z,4.00
2019-03-19T06:36:21.201Z,4.50
2019-03-19T06:38:52.092Z,2.25
2019-03-19T06:41:23.077Z,5.20
2019-03-19T06:43:53.949Z,3.00
2019-03-19T06:46:24.828Z,3.00
2019-03-19T06:48:55.740Z,3.40
2019-03-19T06:51:26.632Z,6.00
2019-03-19T06:53:57.488Z,2.60
2019-03-19T06:56:28.405Z,5.20
2019-03-19T06:58:59.197Z,2.40
2019-03-19T07:01:30.061Z,3.60
2019-03-19T07:04:01.060Z,1.00
2019-03-19T07:06:31.935Z,6.00
2019-03-19T07:09:02.828Z,4.00
2019-03-19T07:11:33.797Z,3.80
2019-03-19T07:14:04.691Z,2.00
2019-03-19T07:16:35.652Z,2.60
2019-03-19T07:19:06.702Z,3.00
2019-03-19T07:21:37.656Z,3.00
2019-03-19T07:24:11.528Z,3.00
2019-03-19T07:26:42.397Z,3.00
2019-03-19T07:29:13.428Z,4.00
2019-03-19T07:31:44.245Z,3.00
2019-03-19T07:34:15.229Z,3.60
2019-03-19T07:36:46.051Z,2.00
2019-03-19T07:39:16.949Z,4.00
2019-03-19T07:41:47.831Z,3.60
2019-03-19T07:44:18.805Z,3.00
2019-03-19T07:46:49.675Z,4.80
2019-03-19T07:49:20.570Z,3.00
2019-03-19T07:51:53.401Z,2.80
2019-03-19T07:54:25.124Z,2.60
2019-03-19T07:56:56.205Z,3.00
2019-03-19T07:59:27.195Z,2.80
2019-03-19T08:01:58.096Z,4.20
2019-03-19T08:04:29.037Z,3.00
2019-03-19T08:06:59.881Z,2.60
2019-03-19T08:09:30.826Z,2.20
2019-03-19T08:12:01.716Z,3.80
2019-03-19T08:14:32.749Z,3.00
2019-03-19T08:17:05.352Z,3.80
2019-03-19T08:19:36.758Z,2.00
2019-03-19T08:22:07.629Z,5.00
2019-03-19T08:24:38.420Z,4.00
2019-03-19T08:27:09.422Z,4.00
2019-03-19T08:29:40.301Z,3.80
2019-03-19T08:32:11.212Z,3.00
2019-03-19T08:34:42.313Z,3.00
2019-03-19T08:37:15.672Z,3.00
2019-03-19T08:39:46.684Z,3.00
2019-03-19T08:42:17.644Z,4.00
2019-03-19T08:44:48.625Z,4.20
2019-03-19T08:47:19.576Z,4.25
2019-03-19T08:49:50.573Z,2.60
2019-03-19T08:52:21.452Z,3.40
2019-03-19T08:54:52.475Z,4.00
2019-03-19T08:57:23.353Z,6.20
2019-03-19T08:59:54.436Z,4.00
2019-03-19T09:02:25.300Z,4.00
2019-03-19T09:04:56.208Z,2.00
2019-03-19T09:07:27.066Z,4.40
2019-03-19T09:09:57.977Z,3.60
2019-03-19T09:12:28.854Z,4.00
2019-03-19T09:14:59.789Z,4.60
2019-03-19T09:17:30.624Z,3.00
2019-03-19T09:20:01.653Z,4.00
2019-03-19T09:22:33.628Z,1.20
2019-03-19T09:25:04.534Z,1.20
2019-03-19T09:27:35.445Z,4.00
2019-03-19T09:30:07.005Z,3.25
2019-03-19T09:32:37.924Z,2.00
2019-03-19T09:35:09.013Z,2.00
2019-03-19T09:37:44.489Z,2.40
2019-03-19T09:40:13.537Z,4.00
2019-03-19T09:42:44.721Z,2.00
2019-03-19T09:45:15.602Z,3.00
2019-03-19T09:47:46.337Z,4.00
2019-03-19T09:50:17.273Z,4.60
2019-03-19T09:52:48.283Z,2.40
2019-03-19T09:55:19.205Z,3.00
2019-03-19T09:57:49.944Z,3.00
2019-03-19T10:00:20.864Z,2.00
2019-03-19T10:02:51.707Z,2.20
2019-03-19T10:05:22.504Z,3.00
2019-03-19T10:07:55.473Z,3.00
2019-03-19T10:10:25.754Z,2.60
2019-03-19T10:12:56.728Z,2.00
2019-03-19T10:15:27.711Z,2.00
2019-03-19T10:17:58.562Z,4.60
2019-03-19T10:20:29.369Z,2.60
2019-03-19T10:23:00.520Z,3.00
2019-03-19T10:25:31.713Z,2.00
2019-03-19T10:28:02.645Z,4.00
2019-03-19T10:30:34.757Z,2.50
2019-03-19T10:33:05.605Z,1.00
2019-03-19T10:35:36.756Z,5.00
2019-03-19T10:38:07.837Z,4.00
2019-03-19T10:40:38.832Z,3.00
2019-03-19T10:43:09.827Z,4.00
2019-03-19T10:45:40.813Z,3.00
2019-03-19T10:48:11.396Z,1.50
2019-03-19T10:50:42.373Z,2.40
2019-03-19T10:53:13.313Z,2.25
2019-03-19T10:55:44.345Z,2.60
2019-03-19T10:58:16.810Z,2.60
2019-03-19T11:00:47.767Z,3.00
2019-03-19T11:03:18.834Z,2.25
2019-03-19T11:05:49.640Z,4.00
2019-03-19T11:08:20.580Z,3.00
2019-03-19T11:10:51.400Z,10.60
2019-03-19T11:13:22.457Z,1.00
2019-03-19T11:15:53.496Z,1.60
2019-03-19T11:18:24.411Z,2.00
2019-03-19T11:20:55.273Z,3.00
2019-03-19T11:23:26.133Z,2.00
2019-03-19T11:25:57.366Z,2.40
2019-03-19T11:28:28.320Z,2.00
2019-03-19T11:30:59.214Z,3.00
2019-03-19T11:33:30.115Z,4.00
2019-03-19T11:36:01.084Z,2.00
2019-03-19T11:38:31.884Z,2.00
2019-03-19T11:41:04.119Z,2.00
2019-03-19T11:43:35.217Z,3.00
2019-03-19T11:46:06.441Z,1.00
2019-03-19T11:48:37.344Z,2.00
2019-03-19T11:51:08.508Z,1.00
2019-03-19T11:53:39.972Z,4.00
2019-03-19T11:56:10.942Z,3.00
2019-03-19T11:58:41.876Z,2.00
2019-03-19T12:01:14.540Z,4.40
2019-03-19T12:03:45.567Z,3.00
2019-03-19T12:06:16.532Z,3.00
2019-03-19T12:08:47.519Z,3.00
2019-03-19T12:11:18.361Z,3.00
2019-03-19T12:13:49.141Z,2.00
2019-03-19T12:16:20.177Z,2.00
2019-03-19T12:18:51.255Z,3.00
2019-03-19T12:21:22.187Z,3.20
2019-03-19T12:23:53.205Z,2.00
2019-03-19T12:26:24.093Z,2.00
2019-03-19T12:28:56.013Z,3.00
2019-03-19T12:31:26.897Z,2.00
2019-03-19T12:33:57.780Z,3.00
2019-03-19T12:36:28.609Z,1.00
2019-03-19T12:38:59.674Z,2.00
2019-03-19T12:41:30.927Z,5.40
2019-03-19T12:44:02.048Z,2.00
2019-03-19T12:46:32.957Z,3.00
2019-03-19T12:49:03.832Z,3.40
2019-03-19T12:51:34.701Z,2.00
2019-03-19T12:54:05.587Z,1.00
2019-03-19T12:56:36.501Z,2.00
2019-03-19T12:59:07.580Z,2.00
2019-03-19T13:01:38.543Z,1.60
2019-03-19T13:04:09.657Z,2.00
2019-03-19T13:06:41.634Z,1.80
2019-03-19T13:09:12.454Z,2.00
2019-03-19T13:11:45.041Z,1.00
2019-03-19T13:14:15.961Z,1.80
2019-03-19T13:16:46.897Z,2.00
2019-03-19T13:19:18.032Z,3.00
2019-03-19T13:21:49.003Z,1.00
2019-03-19T13:24:19.914Z,2.40
2019-03-19T13:26:51.010Z,1.00
2019-03-19T13:29:23.030Z,2.20
2019-03-19T13:31:53.934Z,1.20
2019-03-19T13:34:25.000Z,2.00
2019-03-19T13:36:58.379Z,3.60
2019-03-19T13:39:28.397Z,3.00
2019-03-19T13:41:59.404Z,3.00
2019-03-19T13:44:30.510Z,2.20
2019-03-19T13:47:02.405Z,4.00
2019-03-19T13:49:33.289Z,4.00
2019-03-19T13:52:04.373Z,3.00
2019-03-19T13:54:35.482Z,3.40
2019-03-19T13:57:06.421Z,1.00
2019-03-19T13:59:37.369Z,4.00
2019-03-19T14:02:08.349Z,2.80
2019-03-19T14:04:39.204Z,2.60
2019-03-19T14:07:11.061Z,2.00
2019-03-19T14:09:41.841Z,4.00
2019-03-19T14:12:12.733Z,3.00
2019-03-19T14:14:43.607Z,3.00
2019-03-19T14:17:14.601Z,4.00
2019-03-19T14:19:45.386Z,3.00
2019-03-19T14:22:16.368Z,3.80
2019-03-19T14:24:47.273Z,3.00
2019-03-19T14:27:18.185Z,10.60
2019-03-19T14:29:51.533Z,4.00
2019-03-19T14:32:21.686Z,4.00
2019-03-19T14:34:52.645Z,3.00
2019-03-19T14:37:23.669Z,2.00
2019-03-19T14:39:54.712Z,3.00
2019-03-19T14:42:25.681Z,3.40
2019-03-19T14:44:56.576Z,3.00
2019-03-19T14:47:28.282Z,3.00
2019-03-19T14:49:58.595Z,2.75
2019-03-19T14:52:29.496Z,3.00
2019-03-19T14:55:00.484Z,4.00
2019-03-19T14:57:31.436Z,3.00
2019-03-19T15:00:02.630Z,2.00
2019-03-19T15:02:35.352Z,3.00
2019-03-19T15:05:06.581Z,3.40
2019-03-19T15:07:37.519Z,4.00
2019-03-19T15:10:11.057Z,2.00
2019-03-19T15:12:42.225Z,2.00
2019-03-19T15:15:15.392Z,2.20
2019-03-19T15:17:46.416Z,3.00
2019-03-19T15:20:20.414Z,2.00
2019-03-19T15:22:51.445Z,3.00
2019-03-19T15:25:22.349Z,4.60
2019-03-19T15:27:53.347Z,2.50
2019-03-19T15:30:25.275Z,3.00
2019-03-19T15:32:56.266Z,2.00
2019-03-19T15:35:27.228Z,2.75
2019-03-19T15:37:58.122Z,3.00
2019-03-19T15:40:29.217Z,2.60
2019-03-19T15:43:01.014Z,3.00
2019-03-19T15:45:32.108Z,3.00
2019-03-19T15:48:03.020Z,2.75
2019-03-19T15:50:34.089Z,5.75
2019-03-19T15:53:05.084Z,2.40
2019-03-19T15:55:36.201Z,3.00
2019-03-19T15:58:06.893Z,3.00
2019-03-19T16:00:37.867Z,3.00
2019-03-19T16:03:08.737Z,3.00
2019-03-19T16:05:39.452Z,16.20
2019-03-19T16:08:10.160Z,9.60
2019-03-19T16:10:40.906Z,23.20
2019-03-19T16:13:11.879Z,4.00
2019-03-19T16:15:42.961Z,4.00
2019-03-19T16:18:13.952Z,3.00
2019-03-19T16:20:44.844Z,5.00
2019-03-19T16:23:15.628Z,4.00
2019-03-19T16:25:46.637Z,6.40
2019-03-19T16:28:17.341Z,12.00
2019-03-19T16:30:48.290Z,5.00
2019-03-19T16:33:19.378Z,4.00
2019-03-19T16:35:50.378Z,4.00
2019-03-19T16:38:21.268Z,1.00
2019-03-19T16:40:52.224Z,1.80
2019-03-19T16:43:23.078Z,2.00
2019-03-19T16:45:54.028Z,2.50
2019-03-19T16:48:26.729Z,2.00
2019-03-19T16:50:57.757Z,2.00
2019-03-19T16:53:28.740Z,1.00
2019-03-19T16:55:59.717Z,1.00
2019-03-19T16:58:30.621Z,2.00
2019-03-19T17:01:01.393Z,1.20
2019-03-19T17:03:32.273Z,1.00
2019-03-19T17:06:03.152Z,1.00
2019-03-19T17:08:34.072Z,2.00
2019-03-19T17:11:05.028Z,1.80
2019-03-19T17:13:35.278Z,2.00
2019-03-19T17:16:06.524Z,2.20
2019-03-19T17:18:37.565Z,2.20
2019-03-19T17:21:08.536Z,7.00
2019-03-19T17:23:39.437Z,2.20
2019-03-19T17:26:10.409Z,2.00
2019-03-19T17:28:41.280Z,3.20
2019-03-19T17:31:12.060Z,4.00
2019-03-19T17:33:43.067Z,4.00
2019-03-19T17:36:13.973Z,2.00
2019-03-19T17:38:44.841Z,2.00
2019-03-19T17:41:15.727Z,3.00
2019-03-19T17:43:46.588Z,1.80
2019-03-19T17:46:17.534Z,1.20
2019-03-19T17:48:48.653Z,2.20
2019-03-19T17:51:19.712Z,2.00
2019-03-19T17:53:50.485Z,2.40
2019-03-19T17:56:21.288Z,1.00
2019-03-19T17:58:52.170Z,2.00
2019-03-19T18:01:23.025Z,4.00
2019-03-19T18:03:54.116Z,2.40
2019-03-19T18:06:24.852Z,12.00
2019-03-19T18:08:55.630Z,14.00
2019-03-19T18:11:26.235Z,11.00
2019-03-19T18:13:56.969Z,11.40
2019-03-19T18:50:44.721Z,13.40
2019-03-19T18:57:35.395Z,14.60
2019-03-19T19:00:07.337Z,22.50
2019-03-19T19:02:48.806Z,17.20
2019-03-19T19:05:11.449Z,15.60
2019-03-19T19:07:42.155Z,15.00
2019-03-19T19:10:13.014Z,19.00
2019-03-19T19:12:43.818Z,14.40
2019-03-19T19:15:15.121Z,13.80
2019-03-19T19:17:45.991Z,11.00
2019-03-19T19:20:18.281Z,16.20
2019-03-19T19:22:48.996Z,15.40
2019-03-19T19:25:19.772Z,14.75
2019-03-19T19:27:50.566Z,21.20
2019-03-19T19:30:21.481Z,15.00
2019-03-19T19:33:00.898Z,14.00
2019-03-19T19:35:24.664Z,17.00
2019-03-19T19:37:55.322Z,14.00
2019-03-19T19:40:26.015Z,14.00
2019-03-19T19:42:56.906Z,16.00
2019-03-19T19:45:27.692Z,14.00
2019-03-19T19:47:58.474Z,14.00
2019-03-19T19:50:29.362Z,20.50
2019-03-19T19:53:00.280Z,24.80
2019-03-19T19:55:31.136Z,31.00
2019-03-19T19:58:01.820Z,24.60
2019-03-19T20:00:32.732Z,24.00
2019-03-19T20:03:11.717Z,27.40
2019-03-19T20:05:36.039Z,26.20
2019-03-19T20:08:06.906Z,21.75
2019-03-19T20:10:37.782Z,19.20
2019-03-19T20:13:08.580Z,20.80
2019-03-19T20:15:39.391Z,23.00
2019-03-19T20:18:10.245Z,17.00
2019-03-19T20:20:41.013Z,19.00
2019-03-19T20:23:11.999Z,17.00
2019-03-19T20:25:42.780Z,20.60
2019-03-19T20:28:13.668Z,21.25
2019-03-19T20:30:44.526Z,11.00
2019-03-19T20:33:24.393Z,9.00
2019-03-19T20:35:47.878Z,12.00
2019-03-19T20:38:18.571Z,12.00
2019-03-19T20:40:49.255Z,11.00
2019-03-19T20:43:20.058Z,21.00
2019-03-19T20:45:51.940Z,13.00
2019-03-19T20:48:22.729Z,20.60
2019-03-19T20:50:53.815Z,15.00
2019-03-19T20:53:24.585Z,16.60
2019-03-19T20:55:55.177Z,17.00
2019-03-19T20:58:26.997Z,14.20
2019-03-19T21:00:57.816Z,11.20
2019-03-19T21:03:35.816Z,11.40
2019-03-19T21:06:01.036Z,25.00
2019-03-19T21:08:31.880Z,19.60
2019-03-19T21:11:02.528Z,13.60
2019-03-19T21:13:33.354Z,15.00
2019-03-19T21:16:04.129Z,43.20
2019-03-19T21:18:34.886Z,20.00
2019-03-19T21:21:05.632Z,19.00
2019-03-19T21:23:36.401Z,11.00
2019-03-19T21:26:07.468Z,15.00
2019-03-19T21:28:38.257Z,19.00
2019-03-19T21:31:09.049Z,24.40
2019-03-19T21:33:50.472Z,17.00
2019-03-19T21:36:12.427Z,24.40
2019-03-19T21:38:43.238Z,26.00
2019-03-19T21:41:14.127Z,21.00
2019-03-19T21:43:44.935Z,28.00
2019-03-19T21:46:16.803Z,33.40
2019-03-19T21:48:47.603Z,33.25
2019-03-19T21:51:18.325Z,35.20
2019-03-19T21:53:49.166Z,28.25
2019-03-19T21:56:20.068Z,25.50
2019-03-19T21:58:50.868Z,31.00
2019-03-19T22:01:21.739Z,34.00
2019-03-19T22:04:02.685Z,29.00
2019-03-19T22:06:25.881Z,25.00
2019-03-19T22:08:56.628Z,28.00
2019-03-19T22:11:28.487Z,28.50
2019-03-19T22:13:59.337Z,24.60
2019-03-19T22:16:30.145Z,28.00
2019-03-19T22:19:00.996Z,32.00
2019-03-19T22:21:50.572Z,28.00
2019-03-19T22:51:21.749Z,28.40
2019-03-19T22:53:52.669Z,22.40
2019-03-19T22:56:23.661Z,28.50
2019-03-19T22:58:54.702Z,28.00
2019-03-19T23:01:25.831Z,23.60
2019-03-19T23:03:56.825Z,25.00
2019-03-19T23:06:27.754Z,26.60
2019-03-19T23:08:58.758Z,23.50
2019-03-19T23:11:29.822Z,20.80
2019-03-19T23:14:01.165Z,24.00
2019-03-19T23:16:32.180Z,21.50
2019-03-19T23:19:03.065Z,18.00
2019-03-19T23:21:34.107Z,26.40
2019-03-19T23:24:05.302Z,19.00
2019-03-19T23:26:36.442Z,19.20
2019-03-19T23:29:07.455Z,23.00
2019-03-19T23:31:38.421Z,21.60
2019-03-19T23:34:11.063Z,19.60
2019-03-19T23:36:42.115Z,19.60
2019-03-19T23:39:13.212Z,23.00
2019-03-19T23:41:44.327Z,18.00
2019-03-19T23:44:15.322Z,16.40
2019-03-19T23:46:46.272Z,15.00
2019-03-19T23:49:17.339Z,23.50
2019-03-19T23:51:48.389Z,19.00
2019-03-19T23:54:19.477Z,17.00
2019-03-19T23:56:50.561Z,15.00
2019-03-19T23:59:21.587Z,18.00
